Arrowhead, Minnesota
Current Conditions -  °F | °C
As of 12:56 AM on Thursday 23 Oct 2014 (Local Time) from KCOQ Reporting Station
Scattered Clouds Scattered Clouds  
Wind Chill: 11°   Ceiling: Unl
Heat Index: 11°   Visibility: 10mi
Dew Point:   Wind: 7mph
Humidity: 58%   Direction: 170°S
Pressure: 29.98"   Gusts: NA
Location:  46.8211°N, 92.6871°W
Report Text: KCOQ 230556Z AUTO 17006KT 10SM SCT120 11/03 A2998 RMK AO2
Loading
Personal Weather Stations






























Interactive Weather Map New forecast layout! Learn more

10-Day Weather Forecast

Advertisements
Track Severe Weather on mobile